Time,TemperatureF,DewpointF,PressureIn,WindDirection,WindDirectionDegrees,WindSpeedMPH,WindSpeedGustMPH,Humidity,HourlyPrecipIn,Conditions,Clouds,dailyrainin,SoftwareType,DateUTC
2013-02-21 00:29:00,23.9,23.4,29.77,West,266,9.0,16.0,98,0.00,CLR,SCT,0.00,WeatherDisplay:10.37,2013-02-21 05:29:00,
2013-02-21 00:59:00,24.4,23.9,29.79,WNW,285,7.0,15.0,98,0.00,CLR,SCT,0.00,WeatherDisplay:10.37,2013-02-21 05:59:00,
2013-02-21 01:29:00,24.4,23.9,29.79,West,275,9.0,13.0,98,0.00,CLR,SCT,0.00,WeatherDisplay:10.37,2013-02-21 06:29:00,
2013-02-21 01:59:00,24.4,23.9,29.79,WNW,299,3.0,15.0,98,0.00,CLR,SCT,0.00,WeatherDisplay:10.37,2013-02-21 06:59:00,
2013-02-21 02:29:00,24.6,22.1,29.79,WNW,289,5.0,14.0,90,0.00,BKN,SCT,0.00,WeatherDisplay:10.37,2013-02-21 07:29:00,
2013-02-21 02:59:00,23.7,21.5,29.79,WSW,240,5.0,10.0,91,0.00,BKN,SCT,0.00,WeatherDisplay:10.37,2013-02-21 07:59:00,
2013-02-21 03:29:00,23.0,22.5,29.80,WSW,248,3.0,10.0,98,0.00,CLR,SCT,0.00,WeatherDisplay:10.37,2013-02-21 08:29:00,
2013-02-21 03:59:00,22.5,22.0,29.80,WSW,240,3.0,9.0,98,0.00,CLR,SCT,0.00,WeatherDisplay:10.37,2013-02-21 08:59:00,
2013-02-21 04:29:00,22.3,21.8,29.80,WSW,237,2.0,10.0,98,0.00,BKN,SCT,0.00,WeatherDisplay:10.37,2013-02-21 09:29:00,
2013-02-21 04:59:00,21.9,21.4,29.80,West,276,5.0,10.0,98,0.00,BKN,SCT,0.00,WeatherDisplay:10.37,2013-02-21 09:59:00,
2013-02-21 05:29:00,21.9,21.4,29.79,WSW,251,5.0,12.0,98,0.00,BKN,SCT,0.00,WeatherDisplay:10.37,2013-02-21 10:29:00,
2013-02-21 05:59:00,22.1,17.2,29.79,SW,223,6.0,19.0,81,0.00,BKN,SCT,0.00,WeatherDisplay:10.37,2013-02-21 10:59:00,
2013-02-21 06:29:00,21.7,16.5,29.80,SSW,206,12.0,18.0,80,0.00,BKN,SCT,0.00,WeatherDisplay:10.37,2013-02-21 11:29:00,
2013-02-21 06:59:00,21.4,17.0,29.80,NNW,334,3.0,13.0,83,0.00,CLR,SCT,0.00,WeatherDisplay:10.37,2013-02-21 11:59:00,
2013-02-21 07:29:00,23.0,15.9,29.83,West,262,7.0,9.0,74,0.00,FEW,SCT,0.00,WeatherDisplay:10.37,2013-02-21 12:29:00,
2013-02-21 07:59:00,23.2,14.5,29.83,WNW,290,8.0,14.0,69,0.00,FEW,SCT,0.00,WeatherDisplay:10.37,2013-02-21 12:59:00,
2013-02-21 08:29:00,23.9,14.2,29.82,WNW,290,3.0,18.0,66,0.00,CLR,SCT,0.00,WeatherDisplay:10.37,2013-02-21 13:29:00,
2013-02-21 08:59:00,25.9,14.3,29.83,West,273,8.0,17.0,61,0.00,CLR,SCT,0.00,WeatherDisplay:10.37,2013-02-21 13:59:00,
2013-02-21 09:29:00,26.1,14.8,29.83,West,281,10.0,16.0,62,0.00,FEW,SCT,0.00,WeatherDisplay:10.37,2013-02-21 14:29:00,
2013-02-21 09:59:00,26.7,14.7,29.84,West,271,9.0,15.0,60,0.00,FEW,SCT,0.00,WeatherDisplay:10.37,2013-02-21 14:59:00,
2013-02-21 10:29:00,29.2,15.4,29.84,West,260,10.0,17.0,56,0.00,CLR,SCT,0.00,WeatherDisplay:10.37,2013-02-21 15:29:00,
2013-02-21 10:59:00,29.7,15.9,29.85,NW,307,9.0,14.0,56,0.00,CLR,SCT,0.00,WeatherDisplay:10.37,2013-02-21 15:59:00,
2013-02-21 11:29:00,29.6,15.0,29.84,NW,309,6.0,15.0,54,0.00,FEW,SCT,0.00,WeatherDisplay:10.37,2013-02-21 16:29:00,
2013-02-21 11:59:00,30.9,16.6,29.85,WNW,289,7.0,13.0,55,0.00,FEW,SCT,0.00,WeatherDisplay:10.37,2013-02-21 16:59:00,
2013-02-21 12:29:00,32.9,17.1,29.84,West,269,7.0,14.0,52,0.00,BKN,SCT,0.00,WeatherDisplay:10.37,2013-02-21 17:29:00,
2013-02-21 12:59:00,32.5,16.4,29.84,West,265,9.0,16.0,51,0.00,BKN,SCT,0.00,WeatherDisplay:10.37,2013-02-21 17:59:00,
2013-02-21 13:29:00,32.4,16.7,29.84,WNW,285,9.0,14.0,52,0.00,CLR,SCT,0.00,WeatherDisplay:10.37,2013-02-21 18:29:00,
2013-02-21 13:59:00,32.4,17.1,29.84,West,273,6.0,15.0,53,0.00,CLR,SCT,0.00,WeatherDisplay:10.37,2013-02-21 18:59:00,
2013-02-21 14:29:00,32.8,17.6,29.85,WSW,244,7.0,16.0,53,0.00,FEW,SCT,0.00,WeatherDisplay:10.37,2013-02-21 19:29:00,
2013-02-21 14:59:00,31.0,17.1,29.87,West,265,7.0,16.0,56,0.00,FEW,SCT,0.00,WeatherDisplay:10.37,2013-02-21 19:59:00,
2013-02-21 15:29:00,29.8,16.4,29.89,West,266,7.0,22.0,57,0.00,CLR,SCT,0.00,WeatherDisplay:10.37,2013-02-21 20:29:00,
2013-02-21 15:59:00,29.1,16.5,29.90,NW,310,6.0,13.0,59,0.00,CLR,SCT,0.00,WeatherDisplay:10.37,2013-02-21 20:59:00,
2013-02-21 16:29:00,28.4,17.4,29.93,WNW,287,5.0,15.0,63,0.00,SCT,SCT,0.00,WeatherDisplay:10.37,2013-02-21 21:29:00,
2013-02-21 16:59:00,27.1,16.5,29.95,WNW,291,8.0,18.0,64,0.00,SCT,SCT,0.00,WeatherDisplay:10.37,2013-02-21 21:59:00,
2013-02-21 17:29:00,26.2,17.1,29.98,NW,310,7.0,15.0,68,0.00,CLR,SCT,0.00,WeatherDisplay:10.37,2013-02-21 22:29:00,
2013-02-21 17:59:00,25.5,18.0,30.00,NW,307,7.0,13.0,73,0.00,CLR,SCT,0.00,WeatherDisplay:10.37,2013-02-21 22:59:00,
2013-02-21 18:29:00,25.3,20.0,30.02,West,268,7.0,13.0,80,0.00,CLR,SCT,0.00,WeatherDisplay:10.37,2013-02-21 23:29:00,
2013-02-21 18:59:00,25.2,21.3,30.05,West,270,7.0,13.0,85,0.00,CLR,SCT,0.00,WeatherDisplay:10.37,2013-02-21 23:59:00,
2013-02-21 19:29:00,25.3,24.1,30.07,West,275,7.0,13.0,95,0.00,CLR,SCT,0.00,WeatherDisplay:10.37,2013-02-22 00:29:00,
2013-02-21 19:59:00,25.2,24.7,30.07,West,276,7.0,12.0,98,0.00,CLR,SCT,0.00,WeatherDisplay:10.37,2013-02-22 00:59:00,
2013-02-21 20:29:00,25.0,24.5,30.09,WNW,291,5.0,12.0,98,0.00,CLR,SCT,0.00,WeatherDisplay:10.37,2013-02-22 01:29:00,
2013-02-21 20:59:00,25.2,24.7,30.10,West,265,6.0,13.0,98,0.00,CLR,SCT,0.00,WeatherDisplay:10.37,2013-02-22 01:59:00,
2013-02-21 21:29:00,25.0,24.5,30.12,West,279,5.0,10.0,98,0.00,CLR,SCT,0.00,WeatherDisplay:10.37,2013-02-22 02:29:00,
2013-02-21 21:59:00,24.1,23.6,30.12,WSW,252,3.0,6.0,98,0.00,CLR,SCT,0.00,WeatherDisplay:10.37,2013-02-22 02:59:00,
2013-02-21 22:29:00,24.8,24.3,30.14,WSW,253,3.0,7.0,98,0.00,CLR,SCT,0.00,WeatherDisplay:10.37,2013-02-22 03:29:00,
2013-02-21 22:59:00,25.1,24.7,30.16,WSW,238,6.0,13.0,98,0.00,CLR,SCT,0.00,WeatherDisplay:10.37,2013-02-22 03:59:00,
2013-02-21 23:29:00,24.3,23.8,30.19,WSW,247,7.0,12.0,98,0.00,CLR,SCT,0.00,WeatherDisplay:10.37,2013-02-22 04:29:00,